createdAt,value
2023-05-14T00:00:27.260Z,798.00
2023-05-14T00:01:27.270Z,798.00
2023-05-14T00:02:27.451Z,797.00
2023-05-14T00:03:27.424Z,794.00
2023-05-14T00:04:27.343Z,794.00
2023-05-14T00:05:27.273Z,792.00
2023-05-14T00:06:27.303Z,793.00
2023-05-14T00:07:27.291Z,791.00
2023-05-14T00:08:27.278Z,792.00
2023-05-14T00:09:27.300Z,795.00
2023-05-14T00:10:27.291Z,795.00
2023-05-14T00:11:27.280Z,794.00
2023-05-14T00:12:27.288Z,792.00
2023-05-14T00:13:27.306Z,794.00
2023-05-14T00:14:27.285Z,794.00
2023-05-14T00:15:27.297Z,795.00
2023-05-14T00:16:27.354Z,798.00
2023-05-14T00:17:27.389Z,798.00
2023-05-14T00:18:27.362Z,798.00
2023-05-14T00:19:27.375Z,798.00
2023-05-14T00:20:27.393Z,796.00
2023-05-14T00:21:27.423Z,795.00
2023-05-14T00:22:27.420Z,796.00
2023-05-14T00:23:27.444Z,795.00
2023-05-14T00:24:27.460Z,790.00
2023-05-14T00:25:27.512Z,789.00
2023-05-14T00:26:27.504Z,789.00
2023-05-14T00:27:27.534Z,790.00
2023-05-14T00:28:27.548Z,793.00
2023-05-14T00:29:27.557Z,793.00
2023-05-14T00:30:27.578Z,793.00
2023-05-14T00:31:27.635Z,793.00
2023-05-14T00:32:27.643Z,794.00
2023-05-14T00:33:27.637Z,794.00
2023-05-14T00:34:27.656Z,793.00
2023-05-14T00:35:27.678Z,793.00
2023-05-14T00:36:27.713Z,792.00
2023-05-14T00:37:27.746Z,792.00
2023-05-14T00:38:27.748Z,793.00
2023-05-14T00:39:27.780Z,797.00
2023-05-14T00:40:27.801Z,799.00
2023-05-14T00:41:27.820Z,798.00
2023-05-14T00:42:27.860Z,799.00
2023-05-14T00:43:27.861Z,799.00
2023-05-14T00:44:27.886Z,799.00
2023-05-14T00:45:27.911Z,800.00
2023-05-14T00:46:27.951Z,801.00
2023-05-14T00:47:27.945Z,802.00
2023-05-14T00:48:27.962Z,803.00
2023-05-14T00:49:27.978Z,802.00
2023-05-14T00:50:27.997Z,799.00
2023-05-14T00:51:28.003Z,799.00
2023-05-14T00:52:28.009Z,798.00
2023-05-14T00:53:28.003Z,798.00
2023-05-14T00:54:28.010Z,798.00
2023-05-14T00:55:28.036Z,801.00
2023-05-14T00:56:28.014Z,802.00
2023-05-14T00:57:28.034Z,803.00
2023-05-14T00:58:28.048Z,804.00
2023-05-14T00:59:28.051Z,803.00
2023-05-14T01:00:28.095Z,806.00
2023-05-14T01:01:28.144Z,804.00
2023-05-14T01:02:28.147Z,804.00
2023-05-14T01:03:28.131Z,804.00
2023-05-14T01:04:28.094Z,801.00
2023-05-14T01:05:28.127Z,801.00
2023-05-14T01:06:28.090Z,802.00
2023-05-14T01:07:28.149Z,801.00
2023-05-14T01:08:28.101Z,801.00
2023-05-14T01:09:28.135Z,802.00
2023-05-14T01:10:28.148Z,804.00
2023-05-14T01:11:28.140Z,805.00
2023-05-14T01:12:28.153Z,804.00
2023-05-14T01:13:28.175Z,805.00
2023-05-14T01:14:28.204Z,805.00
2023-05-14T01:15:28.227Z,802.00
2023-05-14T01:16:28.300Z,801.00
2023-05-14T01:17:28.256Z,801.00
2023-05-14T01:18:28.341Z,803.00
2023-05-14T01:19:28.314Z,801.00
2023-05-14T01:20:28.346Z,802.00
2023-05-14T01:21:28.343Z,801.00
2023-05-14T01:22:28.392Z,800.00
2023-05-14T01:23:28.377Z,799.00
2023-05-14T01:24:28.423Z,799.00
2023-05-14T01:25:28.410Z,799.00
2023-05-14T01:26:28.433Z,799.00
2023-05-14T01:27:28.446Z,796.00
2023-05-14T01:28:28.474Z,797.00
2023-05-14T01:29:28.486Z,795.00
2023-05-14T01:30:28.508Z,795.00
2023-05-14T01:31:28.641Z,794.00
2023-05-14T01:32:28.591Z,796.00
2023-05-14T01:33:28.574Z,795.00
2023-05-14T01:34:28.614Z,796.00
2023-05-14T01:35:28.632Z,796.00
2023-05-14T01:36:28.641Z,791.00
2023-05-14T01:37:28.668Z,789.00
2023-05-14T01:38:28.673Z,792.00
2023-05-14T01:39:28.688Z,790.00
2023-05-14T01:40:28.722Z,790.00
2023-05-14T01:41:28.748Z,791.00
2023-05-14T01:42:28.759Z,794.00
2023-05-14T01:43:28.855Z,795.00
2023-05-14T01:44:28.803Z,793.00
2023-05-14T01:45:28.821Z,794.00
2023-05-14T01:46:28.885Z,797.00
2023-05-14T01:47:28.971Z,796.00
2023-05-14T01:48:28.895Z,796.00
2023-05-14T01:49:28.916Z,796.00
2023-05-14T01:50:28.953Z,792.00
2023-05-14T01:51:28.979Z,795.00
2023-05-14T01:52:28.992Z,799.00
2023-05-14T01:53:29.018Z,797.00
2023-05-14T01:54:29.023Z,795.00
2023-05-14T01:55:29.056Z,795.00
2023-05-14T01:56:29.071Z,795.00
2023-05-14T01:57:29.084Z,797.00
2023-05-14T01:58:29.097Z,799.00
2023-05-14T01:59:29.114Z,798.00
2023-05-14T02:00:29.124Z,798.00
2023-05-14T02:01:29.152Z,799.00
2023-05-14T02:02:29.170Z,802.00
2023-05-14T02:03:29.170Z,803.00
2023-05-14T02:04:29.168Z,803.00
2023-05-14T02:05:29.177Z,797.00
2023-05-14T02:06:29.200Z,797.00
2023-05-14T02:07:29.211Z,799.00
2023-05-14T02:08:29.225Z,799.00
2023-05-14T02:09:29.247Z,797.00
2023-05-14T02:10:29.284Z,797.00
2023-05-14T02:11:29.305Z,796.00
2023-05-14T02:12:29.319Z,797.00
2023-05-14T02:13:29.341Z,798.00
2023-05-14T02:14:29.368Z,797.00
2023-05-14T02:15:29.394Z,796.00
2023-05-14T02:16:29.562Z,795.00
2023-05-14T02:17:29.491Z,794.00
2023-05-14T02:18:29.518Z,793.00
2023-05-14T02:19:29.516Z,794.00
2023-05-14T02:20:29.521Z,794.00
2023-05-14T02:21:29.542Z,794.00
2023-05-14T02:22:29.569Z,791.00
2023-05-14T02:23:40.512Z,790.00
2023-05-14T02:24:30.572Z,789.00
2023-05-14T02:25:29.582Z,789.00
2023-05-14T02:26:29.556Z,788.00
2023-05-14T02:27:29.586Z,787.00
2023-05-14T02:28:29.557Z,789.00
2023-05-14T02:29:29.533Z,789.00
2023-05-14T02:30:29.535Z,792.00
2023-05-14T02:31:29.554Z,795.00
2023-05-14T02:32:29.553Z,794.00
2023-05-14T02:33:29.536Z,793.00
2023-05-14T02:34:29.506Z,790.00
2023-05-14T02:35:29.532Z,787.00
2023-05-14T02:36:29.534Z,784.00
2023-05-14T02:37:29.478Z,787.00
2023-05-14T02:38:29.468Z,785.00
2023-05-14T02:39:29.467Z,786.00
2023-05-14T02:40:29.473Z,790.00
2023-05-14T02:41:29.450Z,790.00
2023-05-14T02:42:29.461Z,786.00
2023-05-14T02:43:29.460Z,792.00
2023-05-14T02:44:29.472Z,793.00
2023-05-14T02:45:29.554Z,791.00
2023-05-14T02:46:29.563Z,792.00
2023-05-14T02:47:29.603Z,794.00
2023-05-14T02:48:29.588Z,793.00
2023-05-14T02:49:29.631Z,791.00
2023-05-14T02:50:29.664Z,790.00
2023-05-14T02:51:29.681Z,790.00
2023-05-14T02:52:29.704Z,789.00
2023-05-14T02:53:29.747Z,788.00
2023-05-14T02:54:29.804Z,787.00
2023-05-14T02:55:29.821Z,787.00
2023-05-14T02:56:29.857Z,789.00
2023-05-14T02:57:29.891Z,788.00
2023-05-14T02:58:29.909Z,791.00
2023-05-14T02:59:29.939Z,792.00
2023-05-14T03:00:29.965Z,791.00
2023-05-14T03:01:30.023Z,790.00
2023-05-14T03:02:30.096Z,792.00
2023-05-14T03:03:30.118Z,791.00
2023-05-14T03:04:30.070Z,794.00
2023-05-14T03:05:30.107Z,790.00
2023-05-14T03:06:30.122Z,791.00
2023-05-14T03:07:30.134Z,790.00
2023-05-14T03:08:30.164Z,786.00
2023-05-14T03:09:30.194Z,784.00
2023-05-14T03:10:30.233Z,782.00
2023-05-14T03:11:30.247Z,783.00
2023-05-14T03:12:30.281Z,784.00
2023-05-14T03:13:30.288Z,784.00
2023-05-14T03:14:30.321Z,782.00
2023-05-14T03:15:30.354Z,785.00
2023-05-14T03:16:30.399Z,786.00
2023-05-14T03:17:30.448Z,785.00
2023-05-14T03:18:30.464Z,787.00
2023-05-14T03:19:30.462Z,785.00
2023-05-14T03:20:30.479Z,785.00
2023-05-14T03:21:30.516Z,781.00
2023-05-14T03:22:30.532Z,785.00
2023-05-14T03:23:30.561Z,785.00
2023-05-14T03:24:30.591Z,783.00
2023-05-14T03:25:30.627Z,782.00
2023-05-14T03:26:30.660Z,783.00
2023-05-14T03:27:30.687Z,783.00
2023-05-14T03:28:30.712Z,780.00
2023-05-14T03:29:30.738Z,781.00
2023-05-14T03:30:30.815Z,782.00
2023-05-14T03:31:30.790Z,781.00
2023-05-14T03:32:30.887Z,781.00
2023-05-14T03:33:30.824Z,785.00
2023-05-14T03:34:30.862Z,784.00
2023-05-14T03:35:30.864Z,786.00
2023-05-14T03:36:30.890Z,783.00
2023-05-14T03:37:30.939Z,782.00
2023-05-14T03:38:30.956Z,783.00
2023-05-14T03:39:31.010Z,783.00
2023-05-14T03:40:31.025Z,781.00
2023-05-14T03:41:31.021Z,779.00
2023-05-14T03:42:31.044Z,779.00
2023-05-14T03:43:31.070Z,780.00
2023-05-14T03:44:31.105Z,777.00
2023-05-14T03:45:31.145Z,779.00
2023-05-14T03:46:31.156Z,778.00
2023-05-14T03:47:31.215Z,777.00
2023-05-14T03:48:31.248Z,778.00
2023-05-14T03:49:31.248Z,778.00
2023-05-14T03:50:31.271Z,775.00
2023-05-14T03:51:31.318Z,771.00
2023-05-14T03:52:31.330Z,771.00
2023-05-14T03:53:31.363Z,775.00
2023-05-14T03:54:31.388Z,776.00
2023-05-14T03:55:31.432Z,777.00
2023-05-14T03:56:31.446Z,778.00
2023-05-14T03:57:31.482Z,776.00
2023-05-14T03:58:31.512Z,777.00
2023-05-14T03:59:31.555Z,780.00
2023-05-14T04:00:31.555Z,780.00
2023-05-14T04:01:31.605Z,781.00
2023-05-14T04:02:31.680Z,781.00
2023-05-14T04:03:32.207Z,781.00
2023-05-14T04:04:31.707Z,781.00
2023-05-14T04:05:31.691Z,782.00
2023-05-14T04:06:31.721Z,782.00
2023-05-14T04:07:31.730Z,784.00
2023-05-14T04:08:31.736Z,783.00
2023-05-14T04:09:31.772Z,778.00
2023-05-14T04:10:31.792Z,778.00
2023-05-14T04:11:31.824Z,781.00
2023-05-14T04:12:31.842Z,780.00
2023-05-14T04:13:31.870Z,782.00
2023-05-14T04:14:31.897Z,783.00
2023-05-14T04:15:31.910Z,781.00
2023-05-14T04:16:31.942Z,779.00
2023-05-14T04:17:32.981Z,781.00
2023-05-14T04:18:31.977Z,778.00
2023-05-14T04:19:31.965Z,777.00
2023-05-14T04:20:31.972Z,776.00
2023-05-14T04:21:31.993Z,779.00
2023-05-14T04:22:32.024Z,782.00
2023-05-14T04:23:32.058Z,782.00
2023-05-14T04:24:32.046Z,779.00
2023-05-14T04:25:32.067Z,779.00
2023-05-14T04:26:32.083Z,780.00
2023-05-14T04:27:32.091Z,782.00
2023-05-14T04:28:32.116Z,780.00
2023-05-14T04:29:32.125Z,779.00
2023-05-14T04:30:32.141Z,779.00
2023-05-14T04:31:32.167Z,778.00
2023-05-14T04:32:32.183Z,777.00
2023-05-14T04:33:32.180Z,775.00
2023-05-14T04:34:32.192Z,777.00
2023-05-14T04:35:32.214Z,780.00
2023-05-14T04:36:32.248Z,780.00
2023-05-14T04:37:32.257Z,781.00
2023-05-14T04:38:32.303Z,782.00
2023-05-14T04:39:32.312Z,782.00
2023-05-14T04:40:32.313Z,779.00
2023-05-14T04:41:32.380Z,779.00
2023-05-14T04:42:32.458Z,774.00
2023-05-14T04:43:32.359Z,775.00
2023-05-14T04:44:32.363Z,776.00
2023-05-14T04:45:34.277Z,776.00
2023-05-14T04:46:32.445Z,775.00
2023-05-14T04:47:32.459Z,773.00
2023-05-14T04:48:32.464Z,773.00
2023-05-14T04:49:32.454Z,772.00
2023-05-14T04:50:32.479Z,771.00
2023-05-14T04:51:32.526Z,774.00
2023-05-14T04:52:32.512Z,779.00
2023-05-14T04:53:32.531Z,780.00
2023-05-14T04:54:32.559Z,786.00
2023-05-14T04:55:32.578Z,787.00
2023-05-14T04:56:32.585Z,786.00
2023-05-14T04:57:32.590Z,784.00
2023-05-14T04:58:34.637Z,783.00
2023-05-14T04:59:32.699Z,780.00
2023-05-14T05:00:32.724Z,781.00
2023-05-14T05:01:32.754Z,781.00
2023-05-14T05:02:32.781Z,781.00
2023-05-14T05:03:32.809Z,782.00
2023-05-14T05:04:32.781Z,782.00
2023-05-14T05:05:32.806Z,778.00
2023-05-14T05:06:32.844Z,774.00
2023-05-14T05:07:32.876Z,774.00
2023-05-14T05:08:32.881Z,774.00
2023-05-14T05:09:32.875Z,776.00
2023-05-14T05:10:32.879Z,775.00
2023-05-14T05:11:32.913Z,772.00
2023-05-14T05:12:32.925Z,772.00
2023-05-14T05:13:32.989Z,774.00
2023-05-14T05:14:32.960Z,778.00
2023-05-14T05:15:33.008Z,780.00
2023-05-14T05:16:33.093Z,781.00
2023-05-14T05:17:33.064Z,781.00
2023-05-14T05:18:33.037Z,780.00
2023-05-14T05:19:43.051Z,778.00
2023-05-14T05:20:34.030Z,777.00
2023-05-14T05:21:33.039Z,777.00
2023-05-14T05:22:33.024Z,780.00
2023-05-14T05:23:33.008Z,780.00
2023-05-14T05:24:33.000Z,778.00
2023-05-14T05:25:32.989Z,778.00
2023-05-14T05:26:33.007Z,779.00
2023-05-14T05:28:32.983Z,780.00
2023-05-14T05:29:32.969Z,778.00
2023-05-14T05:30:32.953Z,781.00
2023-05-14T05:31:33.022Z,776.00
2023-05-14T05:32:33.076Z,778.00
2023-05-14T05:33:32.944Z,778.00
2023-05-14T05:34:32.936Z,778.00
2023-05-14T05:35:32.925Z,775.00
2023-05-14T05:36:32.933Z,776.00
2023-05-14T05:37:32.921Z,776.00
2023-05-14T05:38:32.897Z,777.00
2023-05-14T05:39:32.910Z,777.00
2023-05-14T05:40:32.930Z,776.00
2023-05-14T05:41:32.962Z,774.00
2023-05-14T05:42:33.005Z,774.00
2023-05-14T05:43:33.010Z,773.00
2023-05-14T05:44:33.050Z,768.00
2023-05-14T05:45:33.068Z,765.00
2023-05-14T05:46:33.168Z,766.00
2023-05-14T05:47:33.134Z,768.00
2023-05-14T05:48:33.147Z,771.00
2023-05-14T05:49:33.183Z,772.00
2023-05-14T05:50:33.230Z,771.00
2023-05-14T05:51:33.265Z,769.00
2023-05-14T05:52:33.269Z,767.00
2023-05-14T05:53:33.292Z,766.00
2023-05-14T05:54:33.328Z,769.00
2023-05-14T05:55:33.367Z,773.00
2023-05-14T05:56:33.394Z,770.00
2023-05-14T05:57:33.407Z,771.00
2023-05-14T05:58:33.441Z,770.00
2023-05-14T05:59:33.471Z,769.00
2023-05-14T06:00:33.512Z,773.00
2023-05-14T06:01:33.541Z,772.00
2023-05-14T06:02:33.747Z,771.00
2023-05-14T06:03:33.584Z,773.00
2023-05-14T06:04:33.617Z,775.00
2023-05-14T06:05:33.686Z,774.00
2023-05-14T06:06:33.693Z,774.00
2023-05-14T06:08:22.696Z,776.00
2023-05-14T06:09:22.651Z,772.00
2023-05-14T06:10:22.862Z,772.00
2023-05-14T06:11:22.678Z,771.00
2023-05-14T06:12:22.642Z,768.00
2023-05-14T06:13:22.641Z,767.00
2023-05-14T06:14:22.623Z,764.00
2023-05-14T06:15:22.637Z,763.00
2023-05-14T06:16:22.730Z,761.00
2023-05-14T06:17:22.648Z,759.00
2023-05-14T06:18:22.587Z,762.00
2023-05-14T06:19:22.595Z,760.00
2023-05-14T06:20:22.684Z,762.00
2023-05-14T06:21:22.567Z,767.00
2023-05-14T06:22:22.560Z,765.00
2023-05-14T06:23:22.549Z,766.00
2023-05-14T06:24:22.541Z,767.00
2023-05-14T06:25:22.543Z,768.00
2023-05-14T06:26:22.541Z,767.00
2023-05-14T06:27:22.554Z,769.00
2023-05-14T06:28:22.512Z,766.00
2023-05-14T06:29:22.510Z,766.00
2023-05-14T06:30:22.817Z,768.00
2023-05-14T06:31:22.528Z,766.00
2023-05-14T06:32:22.576Z,765.00
2023-05-14T06:33:22.478Z,767.00
2023-05-14T06:34:22.471Z,766.00
2023-05-14T06:35:22.497Z,768.00
2023-05-14T06:36:22.458Z,770.00
2023-05-14T06:37:22.453Z,766.00
2023-05-14T06:38:22.448Z,763.00
2023-05-14T06:39:22.429Z,761.00
2023-05-14T06:40:22.936Z,761.00
2023-05-14T06:41:22.418Z,761.00
2023-05-14T06:42:22.424Z,762.00
2023-05-14T06:43:22.406Z,760.00
2023-05-14T06:44:22.390Z,761.00
2023-05-14T06:45:22.403Z,766.00
2023-05-14T06:46:22.404Z,766.00
2023-05-14T06:47:22.426Z,768.00
2023-05-14T06:48:22.432Z,768.00
2023-05-14T06:49:22.372Z,766.00
2023-05-14T06:50:22.542Z,764.00
2023-05-14T06:51:22.342Z,761.00
2023-05-14T06:52:22.340Z,758.00
2023-05-14T06:53:22.346Z,760.00
2023-05-14T06:54:22.311Z,762.00
2023-05-14T06:55:22.310Z,763.00
2023-05-14T06:56:22.385Z,764.00
2023-05-14T06:57:22.333Z,763.00
2023-05-14T06:58:22.280Z,765.00
2023-05-14T06:59:22.278Z,763.00
2023-05-14T07:00:22.436Z,762.00
2023-05-14T07:01:22.292Z,759.00
2023-05-14T07:02:22.283Z,762.00
2023-05-14T07:03:22.282Z,761.00
2023-05-14T07:04:22.337Z,762.00
2023-05-14T07:05:22.248Z,762.00
2023-05-14T07:06:22.220Z,763.00
2023-05-14T07:07:22.260Z,767.00
2023-05-14T07:08:22.243Z,767.00
2023-05-14T07:09:22.193Z,767.00
2023-05-14T07:10:22.372Z,767.00
2023-05-14T07:11:22.256Z,766.00
2023-05-14T07:12:22.203Z,766.00
2023-05-14T07:13:22.169Z,766.00
2023-05-14T07:14:22.174Z,765.00
2023-05-14T07:15:22.170Z,763.00
2023-05-14T07:16:22.197Z,764.00
2023-05-14T07:17:22.381Z,767.00
2023-05-14T07:18:22.154Z,767.00
2023-05-14T07:19:22.154Z,767.00
2023-05-14T07:20:22.431Z,766.00
2023-05-14T07:21:22.238Z,770.00
2023-05-14T07:22:22.260Z,770.00
2023-05-14T07:23:22.298Z,770.00
2023-05-14T07:24:22.270Z,769.00
2023-05-14T07:25:22.281Z,769.00
2023-05-14T07:26:22.318Z,766.00
2023-05-14T07:27:22.350Z,764.00
2023-05-14T07:28:22.351Z,763.00
2023-05-14T07:29:22.387Z,763.00
2023-05-14T07:30:22.554Z,764.00
2023-05-14T07:31:22.448Z,766.00
2023-05-14T07:32:22.463Z,764.00
2023-05-14T07:33:22.470Z,763.00
2023-05-14T07:34:22.505Z,762.00
2023-05-14T07:35:22.520Z,765.00
2023-05-14T07:36:22.546Z,762.00
2023-05-14T07:37:24.195Z,760.00
2023-05-14T07:38:22.603Z,757.00
2023-05-14T07:39:22.620Z,756.00
2023-05-14T07:40:22.897Z,757.00
2023-05-14T07:41:22.657Z,755.00
2023-05-14T07:42:35.052Z,760.00
2023-05-14T07:43:23.682Z,761.00
2023-05-14T07:44:22.662Z,765.00
2023-05-14T07:45:22.674Z,762.00
2023-05-14T07:46:22.653Z,766.00
2023-05-14T07:47:22.684Z,766.00
2023-05-14T07:48:22.702Z,768.00
2023-05-14T07:49:22.641Z,766.00
2023-05-14T07:50:22.926Z,765.00
2023-05-14T07:51:22.626Z,762.00
2023-05-14T07:52:22.638Z,759.00
2023-05-14T07:53:22.600Z,756.00
2023-05-14T07:54:22.590Z,758.00
2023-05-14T07:55:22.597Z,757.00
2023-05-14T07:56:22.583Z,759.00
2023-05-14T07:57:22.597Z,760.00
2023-05-14T07:58:22.575Z,760.00
2023-05-14T07:59:22.568Z,761.00
2023-05-14T08:00:22.728Z,763.00
2023-05-14T08:01:22.552Z,762.00
2023-05-14T08:02:22.579Z,764.00
2023-05-14T08:03:22.717Z,765.00
2023-05-14T08:04:22.541Z,761.00
2023-05-14T08:05:22.568Z,763.00
2023-05-14T08:06:22.563Z,765.00
2023-05-14T08:07:22.579Z,764.00
2023-05-14T08:08:22.584Z,764.00
2023-05-14T08:09:22.587Z,763.00
2023-05-14T08:10:22.999Z,763.00
2023-05-14T08:11:22.643Z,761.00
2023-05-14T08:12:22.635Z,763.00
2023-05-14T08:13:22.632Z,764.00
2023-05-14T08:14:22.652Z,765.00
2023-05-14T08:15:23.103Z,764.00
2023-05-14T08:16:22.680Z,766.00
2023-05-14T08:17:22.731Z,765.00
2023-05-14T08:18:22.679Z,763.00
2023-05-14T08:19:22.675Z,762.00
2023-05-14T08:20:22.843Z,765.00
2023-05-14T08:21:22.674Z,764.00
2023-05-14T08:22:22.679Z,764.00
2023-05-14T08:23:22.698Z,764.00
2023-05-14T08:24:22.703Z,763.00
2023-05-14T08:25:22.716Z,759.00
2023-05-14T08:26:22.715Z,756.00
2023-05-14T08:27:22.742Z,759.00
2023-05-14T08:28:22.716Z,763.00
2023-05-14T08:29:22.725Z,763.00
2023-05-14T08:30:23.271Z,764.00
2023-05-14T08:31:22.895Z,763.00
2023-05-14T08:32:24.067Z,766.00
2023-05-14T08:33:22.778Z,763.00
2023-05-14T08:34:22.769Z,762.00
2023-05-14T08:35:22.779Z,762.00
2023-05-14T08:36:22.805Z,767.00
2023-05-14T08:37:22.797Z,764.00
2023-05-14T08:38:22.819Z,764.00
2023-05-14T08:39:22.808Z,764.00
2023-05-14T08:40:22.928Z,766.00
2023-05-14T08:41:22.810Z,765.00
2023-05-14T08:42:22.846Z,764.00
2023-05-14T08:43:22.814Z,765.00
2023-05-14T08:44:22.828Z,766.00
2023-05-14T08:45:22.838Z,764.00
2023-05-14T08:46:22.843Z,767.00
2023-05-14T08:47:22.853Z,768.00
2023-05-14T08:48:22.931Z,767.00
2023-05-14T08:49:22.850Z,766.00
2023-05-14T08:50:23.602Z,764.00
2023-05-14T08:51:22.858Z,765.00
2023-05-14T08:52:22.862Z,767.00
2023-05-14T08:53:22.857Z,766.00
2023-05-14T08:54:22.861Z,770.00
2023-05-14T08:55:22.862Z,770.00
2023-05-14T08:56:22.850Z,767.00
2023-05-14T08:57:22.845Z,771.00
2023-05-14T08:58:22.844Z,768.00
2023-05-14T08:59:22.888Z,769.00
2023-05-14T09:00:23.174Z,768.00
2023-05-14T09:01:23.021Z,767.00
2023-05-14T09:02:23.095Z,767.00
2023-05-14T09:03:23.144Z,767.00
2023-05-14T09:04:23.278Z,766.00
2023-05-14T09:05:23.157Z,768.00
2023-05-14T09:06:23.152Z,766.00
2023-05-14T09:07:23.180Z,766.00
2023-05-14T09:08:23.184Z,768.00
2023-05-14T09:09:23.206Z,768.00
2023-05-14T09:10:23.404Z,765.00
2023-05-14T09:11:23.196Z,766.00
2023-05-14T09:12:23.188Z,767.00
2023-05-14T09:13:23.164Z,768.00
2023-05-14T09:14:23.170Z,767.00
2023-05-14T09:15:23.172Z,768.00
2023-05-14T09:16:23.187Z,770.00
2023-05-14T09:17:23.215Z,771.00
2023-05-14T09:18:23.148Z,772.00
2023-05-14T09:19:23.167Z,771.00
2023-05-14T09:20:23.333Z,772.00
2023-05-14T09:21:23.149Z,771.00
2023-05-14T09:22:23.150Z,769.00
2023-05-14T09:23:23.130Z,766.00
2023-05-14T09:24:23.257Z,763.00
2023-05-14T09:25:23.181Z,763.00
2023-05-14T09:26:23.162Z,764.00
2023-05-14T09:27:23.211Z,762.00
2023-05-14T09:28:23.187Z,759.00
2023-05-14T09:29:23.165Z,762.00
2023-05-14T09:30:23.579Z,759.00
2023-05-14T09:31:23.217Z,760.00
2023-05-14T09:32:23.233Z,759.00
2023-05-14T09:33:23.247Z,757.00
2023-05-14T09:34:23.228Z,758.00
2023-05-14T09:35:23.273Z,757.00
2023-05-14T09:36:23.325Z,755.00
2023-05-14T09:37:23.390Z,754.00
2023-05-14T09:38:23.444Z,757.00
2023-05-14T09:39:23.512Z,758.00
2023-05-14T09:40:24.182Z,758.00
2023-05-14T09:41:23.664Z,755.00
2023-05-14T09:42:23.700Z,755.00
2023-05-14T09:43:23.769Z,756.00
2023-05-14T09:44:23.824Z,758.00
2023-05-14T09:45:23.883Z,760.00
2023-05-14T09:46:23.950Z,758.00
2023-05-14T09:47:24.052Z,758.00
2023-05-14T09:48:24.059Z,761.00
2023-05-14T09:49:24.097Z,761.00
2023-05-14T09:50:24.325Z,760.00
2023-05-14T09:51:24.195Z,761.00
2023-05-14T09:52:24.269Z,761.00
2023-05-14T09:53:24.326Z,765.00
2023-05-14T09:54:24.359Z,765.00
2023-05-14T09:55:24.421Z,768.00
2023-05-14T09:56:24.469Z,765.00
2023-05-14T09:57:24.504Z,761.00
2023-05-14T09:58:24.563Z,763.00
2023-05-14T09:59:24.591Z,762.00
2023-05-14T10:00:24.886Z,762.00
2023-05-14T10:01:24.744Z,762.00
2023-05-14T10:02:24.777Z,759.00
2023-05-14T10:03:24.775Z,756.00
2023-05-14T10:04:24.852Z,759.00
2023-05-14T10:05:24.868Z,760.00
2023-05-14T10:06:24.914Z,761.00
2023-05-14T10:07:24.966Z,760.00
2023-05-14T10:08:25.015Z,763.00
2023-05-14T10:09:25.070Z,762.00
2023-05-14T10:10:25.521Z,760.00
2023-05-14T10:11:25.190Z,761.00
2023-05-14T10:12:25.219Z,761.00
2023-05-14T10:13:25.237Z,761.00
2023-05-14T10:14:25.278Z,759.00
2023-05-14T10:15:25.296Z,758.00
2023-05-14T10:16:25.362Z,761.00
2023-05-14T10:17:25.447Z,764.00
2023-05-14T10:18:25.501Z,764.00
2023-05-14T10:19:25.671Z,761.00
2023-05-14T10:20:25.732Z,763.00
2023-05-14T10:21:25.624Z,765.00
2023-05-14T10:22:25.697Z,765.00
2023-05-14T10:23:25.732Z,764.00
2023-05-14T10:24:25.847Z,766.00
2023-05-14T10:25:25.868Z,765.00
2023-05-14T10:26:25.929Z,762.00
2023-05-14T10:27:25.999Z,761.00
2023-05-14T10:28:26.040Z,759.00
2023-05-14T10:29:26.084Z,761.00
2023-05-14T10:30:26.289Z,759.00
2023-05-14T10:31:26.276Z,756.00
2023-05-14T10:32:26.322Z,755.00
2023-05-14T10:33:26.344Z,755.00
2023-05-14T10:34:26.381Z,755.00
2023-05-14T10:35:26.431Z,757.00
2023-05-14T10:36:26.489Z,757.00
2023-05-14T10:37:26.582Z,757.00
2023-05-14T10:38:26.610Z,756.00
2023-05-14T10:39:26.671Z,755.00
2023-05-14T10:40:26.988Z,756.00
2023-05-14T10:41:26.817Z,756.00
2023-05-14T10:42:26.859Z,755.00
2023-05-14T10:43:26.901Z,757.00
2023-05-14T10:44:26.976Z,756.00
2023-05-14T10:45:27.035Z,756.00
2023-05-14T10:46:27.185Z,756.00
2023-05-14T10:47:27.174Z,756.00
2023-05-14T10:48:27.217Z,755.00
2023-05-14T10:49:39.710Z,757.00
2023-05-14T10:50:28.301Z,759.00
2023-05-14T10:51:27.263Z,759.00
2023-05-14T10:52:27.252Z,758.00
2023-05-14T10:53:27.256Z,758.00
2023-05-14T10:54:27.239Z,756.00
2023-05-14T10:55:27.229Z,756.00
2023-05-14T10:56:27.221Z,754.00
2023-05-14T10:57:27.236Z,754.00
2023-05-14T10:58:27.215Z,757.00
2023-05-14T10:59:27.254Z,761.00
2023-05-14T11:00:27.340Z,759.00
2023-05-14T11:01:27.403Z,760.00
2023-05-14T11:02:27.497Z,759.00
2023-05-14T11:03:27.534Z,758.00
2023-05-14T11:04:27.587Z,759.00
2023-05-14T11:05:27.698Z,758.00
2023-05-14T11:06:27.719Z,758.00
2023-05-14T11:07:27.794Z,755.00
2023-05-14T11:08:29.355Z,758.00
2023-05-14T11:09:27.903Z,759.00
2023-05-14T11:10:27.960Z,760.00
2023-05-14T11:11:28.021Z,760.00
2023-05-14T11:12:28.088Z,754.00
2023-05-14T11:13:28.105Z,756.00
2023-05-14T11:14:28.159Z,757.00
2023-05-14T11:15:28.131Z,758.00
2023-05-14T11:16:28.233Z,759.00
2023-05-14T11:17:28.208Z,760.00
2023-05-14T11:18:28.230Z,759.00
2023-05-14T11:19:28.228Z,759.00
2023-05-14T11:20:28.225Z,754.00
2023-05-14T11:21:28.304Z,751.00
2023-05-14T11:22:28.288Z,751.00
2023-05-14T11:23:28.366Z,753.00
2023-05-14T11:24:28.354Z,757.00
2023-05-14T11:25:28.358Z,752.00
2023-05-14T11:26:28.411Z,752.00
2023-05-14T11:27:28.392Z,754.00
2023-05-14T11:28:28.415Z,753.00
2023-05-14T11:29:28.425Z,753.00
2023-05-14T11:30:28.456Z,752.00
2023-05-14T11:31:28.481Z,752.00
2023-05-14T11:32:28.483Z,751.00
2023-05-14T11:33:28.481Z,752.00
2023-05-14T11:34:28.510Z,754.00
2023-05-14T11:35:28.524Z,755.00
2023-05-14T11:36:28.522Z,753.00
2023-05-14T11:37:28.539Z,750.00
2023-05-14T11:38:28.535Z,751.00
2023-05-14T11:39:28.542Z,747.00
2023-05-14T11:40:28.566Z,748.00
2023-05-14T11:41:28.584Z,749.00
2023-05-14T11:42:28.566Z,751.00
2023-05-14T11:43:28.614Z,749.00
2023-05-14T11:44:28.592Z,751.00
2023-05-14T11:45:28.620Z,750.00
2023-05-14T11:46:28.659Z,750.00
2023-05-14T11:47:28.648Z,750.00
2023-05-14T11:48:28.656Z,751.00
2023-05-14T11:49:28.660Z,753.00
2023-05-14T11:50:28.698Z,755.00
2023-05-14T11:51:28.673Z,758.00
2023-05-14T11:52:28.728Z,759.00
2023-05-14T11:53:28.763Z,756.00
2023-05-14T11:54:28.797Z,756.00
2023-05-14T11:55:28.820Z,759.00
2023-05-14T11:56:28.861Z,762.00
2023-05-14T11:57:28.914Z,762.00
2023-05-14T11:58:28.942Z,761.00
2023-05-14T11:59:28.967Z,759.00
2023-05-14T12:00:29.009Z,758.00
2023-05-14T12:01:29.061Z,757.00
2023-05-14T12:02:29.173Z,755.00
2023-05-14T12:03:29.408Z,756.00
2023-05-14T12:04:29.358Z,757.00
2023-05-14T12:05:29.288Z,758.00
2023-05-14T12:06:29.355Z,755.00
2023-05-14T12:07:29.420Z,753.00
2023-05-14T12:08:29.476Z,752.00
2023-05-14T12:09:29.550Z,750.00
2023-05-14T12:10:29.617Z,752.00
2023-05-14T12:11:29.643Z,755.00
2023-05-14T12:12:29.671Z,749.00
2023-05-14T12:13:29.699Z,747.00
2023-05-14T12:14:29.718Z,746.00
2023-05-14T12:15:29.715Z,746.00
2023-05-14T12:16:29.760Z,745.00
2023-05-14T12:17:29.815Z,744.00
2023-05-14T12:18:29.922Z,743.00
2023-05-14T12:19:29.866Z,741.00
2023-05-14T12:20:29.840Z,742.00
2023-05-14T12:21:29.847Z,742.00
2023-05-14T12:22:29.870Z,742.00
2023-05-14T12:23:29.906Z,746.00
2023-05-14T12:24:29.909Z,748.00
2023-05-14T12:25:29.928Z,748.00
2023-05-14T12:26:29.916Z,747.00
2023-05-14T12:27:29.936Z,749.00
2023-05-14T12:28:29.915Z,749.00
2023-05-14T12:29:29.907Z,751.00
2023-05-14T12:30:29.904Z,747.00